Bern Belp Airport LSZB

Flugplatz Daten

Name: Bern Belp Airport

Ident: LSZB

Lat: 46,91410065

Long: 7,497149944

Platzhöhe: 1674 ft

IataCode: BRN

City: Bern

Homepage: http://www.flughafenbern.ch/

Metar

2021/08/02 09:20
LSZB 020920Z 31004KT 9999 SCT020 SCT025 18/12 Q1017 NOSIG

Taf

Gewünschte Webcam nicht vorhanden? Dann fügen Sie eine hinzu. Sie wird dann so schnell wie möglich freigeschaltet
Url: Title: